sensor_id;sensor_type;location;lat;lon;timestamp;pressure;altitude;pressure_sealevel;temperature;humidity
56142;BME280;42018;48.588;10.836;2023-05-18T00:00:28;97381.56;;;8.14;68.72
56142;BME280;42018;48.588;10.836;2023-05-18T00:03:13;97378.56;;;8.23;68.73
56142;BME280;42018;48.588;10.836;2023-05-18T00:05:59;97374.78;;;8.19;68.44
56142;BME280;42018;48.588;10.836;2023-05-18T00:08:48;97369.88;;;8.10;68.91
56142;BME280;42018;48.588;10.836;2023-05-18T00:11:33;97369.41;;;8.13;68.80
56142;BME280;42018;48.588;10.836;2023-05-18T00:14:23;97365.38;;;8.11;68.87
56142;BME280;42018;48.588;10.836;2023-05-18T00:17:09;97366.34;;;8.05;69.19
56142;BME280;42018;48.588;10.836;2023-05-18T00:19:54;97366.66;;;8.08;69.14
56142;BME280;42018;48.588;10.836;2023-05-18T00:22:42;97366.44;;;8.10;69.14
56142;BME280;42018;48.588;10.836;2023-05-18T00:25:28;97362.69;;;7.94;69.74
56142;BME280;42018;48.588;10.836;2023-05-18T00:28:13;97361.19;;;7.98;69.62
56142;BME280;42018;48.588;10.836;2023-05-18T00:30:58;97352.34;;;8.04;69.21
56142;BME280;42018;48.588;10.836;2023-05-18T00:33:44;97353.56;;;8.13;69.04
56142;BME280;42018;48.588;10.836;2023-05-18T00:36:31;97353.69;;;8.19;68.79
56142;BME280;42018;48.588;10.836;2023-05-18T00:39:17;97350.53;;;8.22;68.87
56142;BME280;42018;48.588;10.836;2023-05-18T00:42:03;97344.81;;;8.25;68.07
56142;BME280;42018;48.588;10.836;2023-05-18T00:44:48;97345.09;;;8.11;68.47
56142;BME280;42018;48.588;10.836;2023-05-18T00:47:34;97348.31;;;8.02;68.78
56142;BME280;42018;48.588;10.836;2023-05-18T00:50:19;97351.78;;;7.90;69.26
56142;BME280;42018;48.588;10.836;2023-05-18T00:53:05;97351.78;;;7.90;69.47
56142;BME280;42018;48.588;10.836;2023-05-18T00:55:50;97354.44;;;7.90;69.42
56142;BME280;42018;48.588;10.836;2023-05-18T00:58:38;97350.41;;;7.88;69.24
56142;BME280;42018;48.588;10.836;2023-05-18T01:01:29;97348.38;;;7.66;69.50
56142;BME280;42018;48.588;10.836;2023-05-18T01:04:14;97353.81;;;7.36;71.22
56142;BME280;42018;48.588;10.836;2023-05-18T01:07:00;97351.03;;;7.43;71.26
56142;BME280;42018;48.588;10.836;2023-05-18T01:09:52;97342.31;;;7.66;70.56
56142;BME280;42018;48.588;10.836;2023-05-18T01:15:36;97345.38;;;7.86;69.18
56142;BME280;42018;48.588;10.836;2023-05-18T01:18:59;97345.50;;;7.68;68.46
56142;BME280;42018;48.588;10.836;2023-05-18T01:22:04;97346.75;;;7.89;68.33
56142;BME280;42018;48.588;10.836;2023-05-18T01:24:57;97349.75;;;7.81;68.56
56142;BME280;42018;48.588;10.836;2023-05-18T01:27:45;97340.91;;;7.75;68.81
56142;BME280;42018;48.588;10.836;2023-05-18T01:30:36;97347.72;;;7.59;69.28
56142;BME280;42018;48.588;10.836;2023-05-18T01:33:22;97337.59;;;7.68;69.21
56142;BME280;42018;48.588;10.836;2023-05-18T01:36:09;97342.06;;;7.67;69.16
56142;BME280;42018;48.588;10.836;2023-05-18T01:38:56;97344.13;;;7.77;68.94
56142;BME280;42018;48.588;10.836;2023-05-18T01:41:55;97330.16;;;7.65;67.64
56142;BME280;42018;48.588;10.836;2023-05-18T01:44:47;97330.50;;;7.68;67.84
56142;BME280;42018;48.588;10.836;2023-05-18T01:47:36;97336.13;;;7.60;68.39
56142;BME280;42018;48.588;10.836;2023-05-18T01:50:33;97325.47;;;7.55;68.68
56142;BME280;42018;48.588;10.836;2023-05-18T01:53:27;97323.06;;;7.42;68.84
56142;BME280;42018;48.588;10.836;2023-05-18T01:56:17;97333.97;;;7.46;68.79
56142;BME280;42018;48.588;10.836;2023-05-18T01:59:05;97334.19;;;7.44;68.69
56142;BME280;42018;48.588;10.836;2023-05-18T02:01:50;97332.81;;;7.30;68.76
56142;BME280;42018;48.588;10.836;2023-05-18T02:04:36;97336.38;;;7.12;69.87
56142;BME280;42018;48.588;10.836;2023-05-18T02:07:21;97322.97;;;7.13;69.52
56142;BME280;42018;48.588;10.836;2023-05-18T02:10:07;97324.91;;;7.18;69.71
56142;BME280;42018;48.588;10.836;2023-05-18T02:12:53;97325.34;;;7.15;69.86
56142;BME280;42018;48.588;10.836;2023-05-18T02:15:38;97323.97;;;7.01;69.96
56142;BME280;42018;48.588;10.836;2023-05-18T02:18:23;97324.78;;;7.01;70.08
56142;BME280;42018;48.588;10.836;2023-05-18T02:21:10;97319.28;;;6.91;70.50
56142;BME280;42018;48.588;10.836;2023-05-18T02:23:57;97321.91;;;6.91;70.66
56142;BME280;42018;48.588;10.836;2023-05-18T02:26:43;97319.38;;;6.84;70.94
56142;BME280;42018;48.588;10.836;2023-05-18T02:29:28;97319.63;;;7.06;70.45
56142;BME280;42018;48.588;10.836;2023-05-18T02:32:14;97320.91;;;7.15;69.44
56142;BME280;42018;48.588;10.836;2023-05-18T02:34:59;97320.56;;;7.12;69.18
56142;BME280;42018;48.588;10.836;2023-05-18T02:37:47;97316.19;;;7.06;69.21
56142;BME280;42018;48.588;10.836;2023-05-18T02:40:34;97317.59;;;7.08;69.66
56142;BME280;42018;48.588;10.836;2023-05-18T02:43:19;97314.16;;;7.19;69.34
56142;BME280;42018;48.588;10.836;2023-05-18T02:46:04;97316.66;;;7.14;68.96
56142;BME280;42018;48.588;10.836;2023-05-18T02:48:50;97316.78;;;7.19;68.88
56142;BME280;42018;48.588;10.836;2023-05-18T02:51:35;97318.03;;;7.29;68.47
56142;BME280;42018;48.588;10.836;2023-05-18T02:54:21;97321.81;;;7.09;69.01
56142;BME280;42018;48.588;10.836;2023-05-18T02:57:06;97311.28;;;6.98;69.24
56142;BME280;42018;48.588;10.836;2023-05-18T02:59:52;97313.44;;;6.89;69.43
56142;BME280;42018;48.588;10.836;2023-05-18T03:02:37;97311.03;;;6.87;69.65
56142;BME280;42018;48.588;10.836;2023-05-18T03:05:22;97312.31;;;7.08;69.48
56142;BME280;42018;48.588;10.836;2023-05-18T03:08:08;97313.09;;;7.20;68.92
56142;BME280;42018;48.588;10.836;2023-05-18T03:10:54;97309.88;;;7.18;68.84
56142;BME280;42018;48.588;10.836;2023-05-18T03:13:40;97312.06;;;7.22;67.89
56142;BME280;42018;48.588;10.836;2023-05-18T03:16:25;97311.50;;;7.19;68.19
56142;BME280;42018;48.588;10.836;2023-05-18T03:19:12;97304.50;;;7.13;67.88
56142;BME280;42018;48.588;10.836;2023-05-18T03:22:00;97311.00;;;6.76;68.59
56142;BME280;42018;48.588;10.836;2023-05-18T03:24:45;97307.34;;;6.88;68.65
56142;BME280;42018;48.588;10.836;2023-05-18T03:27:31;97307.91;;;6.79;68.91
56142;BME280;42018;48.588;10.836;2023-05-18T03:30:16;97302.97;;;6.70;69.46
56142;BME280;42018;48.588;10.836;2023-05-18T03:33:02;97311.91;;;6.69;68.89
56142;BME280;42018;48.588;10.836;2023-05-18T03:35:48;97308.69;;;6.67;69.77
56142;BME280;42018;48.588;10.836;2023-05-18T03:38:33;97309.75;;;6.78;69.53
56142;BME280;42018;48.588;10.836;2023-05-18T03:41:18;97308.84;;;6.72;69.60
56142;BME280;42018;48.588;10.836;2023-05-18T03:44:06;97298.50;;;6.59;70.27
56142;BME280;42018;48.588;10.836;2023-05-18T03:46:51;97307.91;;;6.67;69.39
56142;BME280;42018;48.588;10.836;2023-05-18T03:49:36;97306.31;;;6.66;69.29
56142;BME280;42018;48.588;10.836;2023-05-18T03:52:22;97310.81;;;6.47;70.03
56142;BME280;42018;48.588;10.836;2023-05-18T03:55:08;97315.97;;;6.54;69.87
56142;BME280;42018;48.588;10.836;2023-05-18T03:57:53;97314.28;;;6.59;69.70
56142;BME280;42018;48.588;10.836;2023-05-18T04:00:39;97309.25;;;6.58;70.08
56142;BME280;42018;48.588;10.836;2023-05-18T04:03:24;97312.78;;;6.52;70.44
56142;BME280;42018;48.588;10.836;2023-05-18T04:06:11;97311.66;;;6.59;69.79
56142;BME280;42018;48.588;10.836;2023-05-18T04:08:56;97306.94;;;6.50;70.22
56142;BME280;42018;48.588;10.836;2023-05-18T04:11:42;97314.09;;;6.72;69.57
56142;BME280;42018;48.588;10.836;2023-05-18T04:14:27;97317.28;;;6.63;69.73
56142;BME280;42018;48.588;10.836;2023-05-18T04:17:13;97316.50;;;6.74;70.02
56142;BME280;42018;48.588;10.836;2023-05-18T04:19:59;97315.00;;;6.78;70.25
56142;BME280;42018;48.588;10.836;2023-05-18T04:22:46;97313.31;;;7.07;69.05
56142;BME280;42018;48.588;10.836;2023-05-18T04:25:32;97320.66;;;7.17;68.86
56142;BME280;42018;48.588;10.836;2023-05-18T04:28:17;97319.41;;;7.43;68.20
56142;BME280;42018;48.588;10.836;2023-05-18T04:31:03;97322.03;;;7.55;68.08
56142;BME280;42018;48.588;10.836;2023-05-18T04:33:49;97331.53;;;7.67;68.26
56142;BME280;42018;48.588;10.836;2023-05-18T04:36:35;97326.59;;;7.83;67.59
56142;BME280;42018;48.588;10.836;2023-05-18T04:39:24;97321.72;;;7.91;67.61
56142;BME280;42018;48.588;10.836;2023-05-18T04:42:09;97333.88;;;8.04;66.96
56142;BME280;42018;48.588;10.836;2023-05-18T04:44:58;97338.66;;;8.07;67.15
56142;BME280;42018;48.588;10.836;2023-05-18T04:47:44;97335.88;;;8.14;67.09
56142;BME280;42018;48.588;10.836;2023-05-18T04:50:30;97340.56;;;8.24;66.56
56142;BME280;42018;48.588;10.836;2023-05-18T04:53:15;97334.09;;;8.31;66.29
56142;BME280;42018;48.588;10.836;2023-05-18T04:56:02;97331.56;;;8.36;66.06
56142;BME280;42018;48.588;10.836;2023-05-18T04:58:47;97335.44;;;8.46;65.48
56142;BME280;42018;48.588;10.836;2023-05-18T05:01:33;97333.91;;;8.61;65.34
56142;BME280;42018;48.588;10.836;2023-05-18T05:04:20;97333.47;;;8.53;65.54
56142;BME280;42018;48.588;10.836;2023-05-18T05:07:05;97336.09;;;8.53;65.97
56142;BME280;42018;48.588;10.836;2023-05-18T05:09:50;97337.09;;;8.63;65.25
56142;BME280;42018;48.588;10.836;2023-05-18T05:12:37;97346.53;;;8.59;65.87
56142;BME280;42018;48.588;10.836;2023-05-18T05:15:22;97346.22;;;8.56;66.25
56142;BME280;42018;48.588;10.836;2023-05-18T05:18:07;97339.88;;;8.57;66.18
56142;BME280;42018;48.588;10.836;2023-05-18T05:20:53;97337.22;;;8.57;66.72
56142;BME280;42018;48.588;10.836;2023-05-18T05:23:38;97338.72;;;8.65;66.41
56142;BME280;42018;48.588;10.836;2023-05-18T05:26:25;97337.38;;;8.79;66.56
56142;BME280;42018;48.588;10.836;2023-05-18T05:29:11;97338.88;;;8.75;66.36
56142;BME280;42018;48.588;10.836;2023-05-18T05:31:56;97341.13;;;9.00;66.01
56142;BME280;42018;48.588;10.836;2023-05-18T05:34:41;97344.81;;;8.99;65.79
56142;BME280;42018;48.588;10.836;2023-05-18T05:37:31;97333.75;;;8.68;66.22
56142;BME280;42018;48.588;10.836;2023-05-18T05:40:17;97343.44;;;8.79;65.85
56142;BME280;42018;48.588;10.836;2023-05-18T05:43:04;97342.66;;;8.96;65.11
56142;BME280;42018;48.588;10.836;2023-05-18T05:45:50;97341.31;;;8.93;65.18
56142;BME280;42018;48.588;10.836;2023-05-18T05:48:35;97344.81;;;8.99;65.45
56142;BME280;42018;48.588;10.836;2023-05-18T05:51:20;97340.44;;;9.04;65.19
56142;BME280;42018;48.588;10.836;2023-05-18T05:54:06;97344.03;;;9.15;64.82
56142;BME280;42018;48.588;10.836;2023-05-18T05:56:51;97348.00;;;9.18;64.11
56142;BME280;42018;48.588;10.836;2023-05-18T05:59:36;97347.38;;;9.10;64.23
56142;BME280;42018;48.588;10.836;2023-05-18T06:02:22;97340.50;;;9.09;63.63
56142;BME280;42018;48.588;10.836;2023-05-18T06:05:08;97341.28;;;9.27;63.80
56142;BME280;42018;48.588;10.836;2023-05-18T06:07:55;97347.00;;;9.19;63.28
56142;BME280;42018;48.588;10.836;2023-05-18T06:10:40;97346.50;;;9.22;63.35
56142;BME280;42018;48.588;10.836;2023-05-18T06:13:26;97346.91;;;9.30;63.77
56142;BME280;42018;48.588;10.836;2023-05-18T06:16:11;97340.06;;;9.34;64.38
56142;BME280;42018;48.588;10.836;2023-05-18T06:18:56;97348.25;;;9.33;62.76
56142;BME280;42018;48.588;10.836;2023-05-18T06:21:42;97349.13;;;9.39;63.11
56142;BME280;42018;48.588;10.836;2023-05-18T06:24:27;97354.88;;;9.35;63.30
56142;BME280;42018;48.588;10.836;2023-05-18T06:27:13;97357.22;;;9.49;61.76
56142;BME280;42018;48.588;10.836;2023-05-18T06:29:58;97357.78;;;9.51;61.11
56142;BME280;42018;48.588;10.836;2023-05-18T06:32:43;97362.44;;;9.61;61.25
56142;BME280;42018;48.588;10.836;2023-05-18T06:35:29;97349.72;;;9.63;61.36
56142;BME280;42018;48.588;10.836;2023-05-18T06:38:14;97360.00;;;9.59;61.06
56142;BME280;42018;48.588;10.836;2023-05-18T06:41:00;97352.78;;;9.71;60.63
56142;BME280;42018;48.588;10.836;2023-05-18T06:43:45;97359.66;;;9.72;59.79
56142;BME280;42018;48.588;10.836;2023-05-18T06:46:30;97357.22;;;9.88;59.66
56142;BME280;42018;48.588;10.836;2023-05-18T06:49:16;97356.53;;;9.97;59.68
56142;BME280;42018;48.588;10.836;2023-05-18T06:52:02;97352.97;;;10.08;59.22
56142;BME280;42018;48.588;10.836;2023-05-18T06:54:47;97351.28;;;10.24;59.43
56142;BME280;42018;48.588;10.836;2023-05-18T06:57:33;97358.88;;;10.16;57.74
56142;BME280;42018;48.588;10.836;2023-05-18T07:00:18;97342.50;;;10.19;59.48
56142;BME280;42018;48.588;10.836;2023-05-18T07:03:04;97344.84;;;10.37;58.28
56142;BME280;42018;48.588;10.836;2023-05-18T07:05:50;97352.47;;;10.55;57.46
56142;BME280;42018;48.588;10.836;2023-05-18T07:08:36;97353.47;;;10.49;57.33
56142;BME280;42018;48.588;10.836;2023-05-18T07:11:21;97349.44;;;10.74;57.78
56142;BME280;42018;48.588;10.836;2023-05-18T07:14:07;97351.47;;;10.89;57.25
56142;BME280;42018;48.588;10.836;2023-05-18T07:16:52;97350.19;;;10.96;58.29
56142;BME280;42018;48.588;10.836;2023-05-18T07:19:37;97352.78;;;11.23;57.88
56142;BME280;42018;48.588;10.836;2023-05-18T07:22:23;97353.53;;;11.14;56.16
56142;BME280;42018;48.588;10.836;2023-05-18T07:25:08;97354.06;;;11.16;56.82
56142;BME280;42018;48.588;10.836;2023-05-18T07:27:53;97352.06;;;11.33;56.78
56142;BME280;42018;48.588;10.836;2023-05-18T07:30:39;97353.50;;;11.46;57.06
56142;BME280;42018;48.588;10.836;2023-05-18T07:33:25;97352.06;;;11.70;57.10
56142;BME280;42018;48.588;10.836;2023-05-18T07:36:10;97347.41;;;11.98;56.42
56142;BME280;42018;48.588;10.836;2023-05-18T07:38:55;97346.63;;;11.97;55.81
56142;BME280;42018;48.588;10.836;2023-05-18T07:41:41;97354.13;;;12.11;55.05
56142;BME280;42018;48.588;10.836;2023-05-18T07:44:26;97356.56;;;12.22;54.93
56142;BME280;42018;48.588;10.836;2023-05-18T07:47:12;97343.56;;;12.26;53.16
56142;BME280;42018;48.588;10.836;2023-05-18T07:49:57;97344.03;;;12.13;52.66
56142;BME280;42018;48.588;10.836;2023-05-18T07:52:42;97348.31;;;12.19;53.71
56142;BME280;42018;48.588;10.836;2023-05-18T07:55:28;97345.13;;;12.22;53.69
56142;BME280;42018;48.588;10.836;2023-05-18T07:58:13;97344.41;;;12.47;52.59
56142;BME280;42018;48.588;10.836;2023-05-18T08:00:58;97342.03;;;12.45;53.30
56142;BME280;42018;48.588;10.836;2023-05-18T08:03:44;97329.50;;;12.36;50.95
56142;BME280;42018;48.588;10.836;2023-05-18T08:06:29;97341.53;;;12.69;51.82
56142;BME280;42018;48.588;10.836;2023-05-18T08:09:15;97337.28;;;12.83;51.71
56142;BME280;42018;48.588;10.836;2023-05-18T08:12:01;97336.78;;;13.07;50.98
56142;BME280;42018;48.588;10.836;2023-05-18T08:14:46;97345.00;;;13.15;50.17
56142;BME280;42018;48.588;10.836;2023-05-18T08:17:32;97332.28;;;13.28;50.76
56142;BME280;42018;48.588;10.836;2023-05-18T08:20:17;97344.75;;;13.48;50.82
56142;BME280;42018;48.588;10.836;2023-05-18T08:23:03;97333.00;;;13.74;50.01
56142;BME280;42018;48.588;10.836;2023-05-18T08:25:48;97330.75;;;14.07;50.40
56142;BME280;42018;48.588;10.836;2023-05-18T08:28:33;97339.75;;;14.21;48.29
56142;BME280;42018;48.588;10.836;2023-05-18T08:31:19;97334.91;;;14.28;48.83
56142;BME280;42018;48.588;10.836;2023-05-18T08:34:06;97340.41;;;14.52;47.71
56142;BME280;42018;48.588;10.836;2023-05-18T08:36:51;97341.47;;;14.46;47.09
56142;BME280;42018;48.588;10.836;2023-05-18T08:39:37;97332.94;;;14.49;46.88
56142;BME280;42018;48.588;10.836;2023-05-18T08:42:32;97327.66;;;14.39;48.00
56142;BME280;42018;48.588;10.836;2023-05-18T08:45:24;97334.56;;;14.90;48.81
56142;BME280;42018;48.588;10.836;2023-05-18T08:48:14;97328.91;;;14.96;47.56
56142;BME280;42018;48.588;10.836;2023-05-18T08:51:00;97323.16;;;14.79;45.38
56142;BME280;42018;48.588;10.836;2023-05-18T08:53:52;97323.16;;;14.79;46.35
56142;BME280;42018;48.588;10.836;2023-05-18T08:56:38;97328.91;;;15.01;46.96
56142;BME280;42018;48.588;10.836;2023-05-18T08:59:26;97313.13;;;15.34;46.16
56142;BME280;42018;48.588;10.836;2023-05-18T09:02:15;97301.03;;;15.13;45.39
56142;BME280;42018;48.588;10.836;2023-05-18T09:05:01;97306.59;;;14.87;45.63
56142;BME280;42018;48.588;10.836;2023-05-18T09:07:49;97306.59;;;14.87;46.06
56142;BME280;42018;48.588;10.836;2023-05-18T09:10:35;97303.78;;;15.02;45.93
56142;BME280;42018;48.588;10.836;2023-05-18T09:13:21;97306.94;;;15.39;45.50
56142;BME280;42018;48.588;10.836;2023-05-18T09:16:06;97307.00;;;15.33;45.40
56142;BME280;42018;48.588;10.836;2023-05-18T09:18:52;97307.84;;;15.53;44.08
56142;BME280;42018;48.588;10.836;2023-05-18T09:21:38;97310.47;;;15.58;43.16
56142;BME280;42018;48.588;10.836;2023-05-18T09:24:23;97309.34;;;15.64;42.96
56142;BME280;42018;48.588;10.836;2023-05-18T09:27:08;97309.44;;;15.83;43.70
56142;BME280;42018;48.588;10.836;2023-05-18T09:29:56;97311.50;;;16.10;43.32
56142;BME280;42018;48.588;10.836;2023-05-18T09:32:46;97313.75;;;16.22;43.33
56142;BME280;42018;48.588;10.836;2023-05-18T09:35:32;97317.03;;;16.19;42.24
56142;BME280;42018;48.588;10.836;2023-05-18T09:38:20;97302.34;;;15.97;41.79
56142;BME280;42018;48.588;10.836;2023-05-18T09:41:16;97311.19;;;15.40;42.77
56142;BME280;42018;48.588;10.836;2023-05-18T09:44:02;97314.38;;;15.42;42.48
56142;BME280;42018;48.588;10.836;2023-05-18T09:46:56;97309.75;;;16.00;42.42
56142;BME280;42018;48.588;10.836;2023-05-18T09:49:41;97320.59;;;15.90;41.52
56142;BME280;42018;48.588;10.836;2023-05-18T09:52:26;97318.13;;;15.94;42.12
56142;BME280;42018;48.588;10.836;2023-05-18T09:55:15;97308.41;;;16.22;41.80
56142;BME280;42018;48.588;10.836;2023-05-18T09:58:00;97310.69;;;16.34;41.41
56142;BME280;42018;48.588;10.836;2023-05-18T10:00:48;97313.50;;;16.61;41.38
56142;BME280;42018;48.588;10.836;2023-05-18T10:03:40;97301.94;;;16.85;41.48
56142;BME280;42018;48.588;10.836;2023-05-18T10:06:27;97301.00;;;16.57;40.10
56142;BME280;42018;48.588;10.836;2023-05-18T10:09:16;97300.84;;;16.86;41.52
56142;BME280;42018;48.588;10.836;2023-05-18T10:12:02;97285.88;;;17.17;41.31
56142;BME280;42018;48.588;10.836;2023-05-18T10:14:48;97289.59;;;17.49;40.09
56142;BME280;42018;48.588;10.836;2023-05-18T10:17:33;97285.34;;;17.48;39.45
56142;BME280;42018;48.588;10.836;2023-05-18T10:20:23;97284.44;;;17.39;40.09
56142;BME280;42018;48.588;10.836;2023-05-18T10:23:10;97297.06;;;17.06;41.20
56142;BME280;42018;48.588;10.836;2023-05-18T10:25:56;97284.69;;;16.72;40.20
56142;BME280;42018;48.588;10.836;2023-05-18T10:28:44;97293.56;;;16.72;40.45
56142;BME280;42018;48.588;10.836;2023-05-18T10:31:31;97290.44;;;16.84;40.19
56142;BME280;42018;48.588;10.836;2023-05-18T10:34:19;97288.00;;;17.34;40.71
56142;BME280;42018;48.588;10.836;2023-05-18T10:37:07;97295.22;;;16.87;39.89
56142;BME280;42018;48.588;10.836;2023-05-18T10:39:54;97286.41;;;16.49;40.92
56142;BME280;42018;48.588;10.836;2023-05-18T10:42:40;97289.72;;;16.41;40.64
56142;BME280;42018;48.588;10.836;2023-05-18T10:45:27;97289.69;;;16.03;41.60
56142;BME280;42018;48.588;10.836;2023-05-18T10:48:13;97290.56;;;16.17;41.11
56142;BME280;42018;48.588;10.836;2023-05-18T10:50:59;97298.75;;;15.83;40.79
56142;BME280;42018;48.588;10.836;2023-05-18T10:53:45;97298.53;;;15.79;41.29
56142;BME280;42018;48.588;10.836;2023-05-18T10:56:32;97281.84;;;16.31;40.67
56142;BME280;42018;48.588;10.836;2023-05-18T10:59:20;97282.41;;;16.09;42.02
56142;BME280;42018;48.588;10.836;2023-05-18T11:02:09;97291.53;;;16.26;42.28
56142;BME280;42018;48.588;10.836;2023-05-18T11:04:55;97287.13;;;15.93;41.45
56142;BME280;42018;48.588;10.836;2023-05-18T11:07:43;97292.13;;;15.75;41.90
56142;BME280;42018;48.588;10.836;2023-05-18T11:10:43;97295.25;;;15.83;42.08
56142;BME280;42018;48.588;10.836;2023-05-18T11:13:31;97285.31;;;15.88;43.33
56142;BME280;42018;48.588;10.836;2023-05-18T11:16:18;97284.22;;;15.65;42.62
56142;BME280;42018;48.588;10.836;2023-05-18T11:19:05;97283.91;;;15.96;42.20
56142;BME280;42018;48.588;10.836;2023-05-18T11:21:52;97287.00;;;16.03;42.75
56142;BME280;42018;48.588;10.836;2023-05-18T11:24:39;97282.69;;;16.07;42.18
56142;BME280;42018;48.588;10.836;2023-05-18T11:27:25;97283.06;;;16.38;41.63
56142;BME280;42018;48.588;10.836;2023-05-18T11:33:17;97284.28;;;16.46;41.77
56142;BME280;42018;48.588;10.836;2023-05-18T11:36:09;97287.31;;;16.20;41.87
56142;BME280;42018;48.588;10.836;2023-05-18T11:39:02;97278.59;;;16.52;41.60
56142;BME280;42018;48.588;10.836;2023-05-18T11:42:04;97282.88;;;17.05;41.09
56142;BME280;42018;48.588;10.836;2023-05-18T11:44:51;97283.03;;;16.95;41.79
56142;BME280;42018;48.588;10.836;2023-05-18T11:47:38;97283.88;;;16.77;40.85
56142;BME280;42018;48.588;10.836;2023-05-18T11:50:24;97288.97;;;16.54;42.48
56142;BME280;42018;48.588;10.836;2023-05-18T11:53:14;97284.72;;;16.91;41.86
56142;BME280;42018;48.588;10.836;2023-05-18T11:56:00;97274.53;;;17.67;41.66
56142;BME280;42018;48.588;10.836;2023-05-18T11:58:45;97282.75;;;17.43;40.62
56142;BME280;42018;48.588;10.836;2023-05-18T12:01:33;97280.91;;;17.11;39.91
56142;BME280;42018;48.588;10.836;2023-05-18T12:04:18;97279.59;;;16.94;42.30
56142;BME280;42018;48.588;10.836;2023-05-18T12:07:04;97288.34;;;16.62;41.43
56142;BME280;42018;48.588;10.836;2023-05-18T12:09:50;97279.25;;;16.44;41.54
56142;BME280;42018;48.588;10.836;2023-05-18T12:12:36;97279.38;;;16.91;39.98
56142;BME280;42018;48.588;10.836;2023-05-18T12:15:23;97269.41;;;16.40;40.75
56142;BME280;42018;48.588;10.836;2023-05-18T12:18:09;97274.53;;;16.55;40.98
56142;BME280;42018;48.588;10.836;2023-05-18T12:20:55;97265.13;;;16.39;41.21
56142;BME280;42018;48.588;10.836;2023-05-18T12:23:40;97265.44;;;16.37;42.06
56142;BME280;42018;48.588;10.836;2023-05-18T12:26:25;97270.81;;;16.89;40.40
56142;BME280;42018;48.588;10.836;2023-05-18T12:29:13;97262.16;;;16.97;40.80
56142;BME280;42018;48.588;10.836;2023-05-18T12:32:05;97264.31;;;16.95;40.78
56142;BME280;42018;48.588;10.836;2023-05-18T12:34:51;97264.84;;;17.11;41.38
56142;BME280;42018;48.588;10.836;2023-05-18T12:37:43;97265.31;;;16.99;40.24
56142;BME280;42018;48.588;10.836;2023-05-18T12:40:36;97269.41;;;16.78;41.00
56142;BME280;42018;48.588;10.836;2023-05-18T12:43:32;97265.34;;;17.13;40.73
56142;BME280;42018;48.588;10.836;2023-05-18T12:46:20;97269.31;;;17.15;40.57
56142;BME280;42018;48.588;10.836;2023-05-18T12:49:06;97262.97;;;16.79;41.11
56142;BME280;42018;48.588;10.836;2023-05-18T12:51:54;97266.47;;;16.79;40.76
56142;BME280;42018;48.588;10.836;2023-05-18T12:54:51;97254.44;;;16.77;40.67
56142;BME280;42018;48.588;10.836;2023-05-18T12:57:39;97252.22;;;16.97;41.05
56142;BME280;42018;48.588;10.836;2023-05-18T13:00:31;97256.25;;;17.28;40.25
56142;BME280;42018;48.588;10.836;2023-05-18T13:03:18;97248.88;;;17.06;40.81
56142;BME280;42018;48.588;10.836;2023-05-18T13:06:07;97255.97;;;16.83;40.65
56142;BME280;42018;48.588;10.836;2023-05-18T13:08:54;97265.22;;;16.52;41.17
56142;BME280;42018;48.588;10.836;2023-05-18T13:11:50;97260.81;;;16.24;42.21
56142;BME280;42018;48.588;10.836;2023-05-18T13:14:38;97257.91;;;16.39;42.21
56142;BME280;42018;48.588;10.836;2023-05-18T13:17:24;97250.41;;;16.93;41.30
56142;BME280;42018;48.588;10.836;2023-05-18T13:20:13;97250.38;;;17.12;40.44
56142;BME280;42018;48.588;10.836;2023-05-18T13:23:06;97241.78;;;17.42;40.01
56142;BME280;42018;48.588;10.836;2023-05-18T13:25:52;97240.97;;;17.42;39.30
56142;BME280;42018;48.588;10.836;2023-05-18T13:28:38;97240.94;;;17.14;39.79
56142;BME280;42018;48.588;10.836;2023-05-18T13:31:23;97237.97;;;17.02;39.39
56142;BME280;42018;48.588;10.836;2023-05-18T13:34:09;97235.44;;;17.52;38.80
56142;BME280;42018;48.588;10.836;2023-05-18T13:36:54;97239.81;;;17.89;40.79
56142;BME280;42018;48.588;10.836;2023-05-18T13:39:41;97240.47;;;17.54;39.52
56142;BME280;42018;48.588;10.836;2023-05-18T13:42:26;97234.34;;;17.53;39.80
56142;BME280;42018;48.588;10.836;2023-05-18T13:45:13;97240.69;;;17.30;40.35
56142;BME280;42018;48.588;10.836;2023-05-18T13:47:58;97238.09;;;17.24;40.50
56142;BME280;42018;48.588;10.836;2023-05-18T13:50:44;97242.47;;;16.88;39.47
56142;BME280;42018;48.588;10.836;2023-05-18T13:53:29;97230.31;;;16.95;38.88
56142;BME280;42018;48.588;10.836;2023-05-18T13:56:15;97224.81;;;17.61;38.08
56142;BME280;42018;48.588;10.836;2023-05-18T13:59:00;97225.41;;;17.44;37.61
56142;BME280;42018;48.588;10.836;2023-05-18T14:01:46;97214.06;;;18.02;37.29
56142;BME280;42018;48.588;10.836;2023-05-18T14:04:31;97214.06;;;18.02;38.23
56142;BME280;42018;48.588;10.836;2023-05-18T14:07:17;97213.59;;;17.45;38.19
56142;BME280;42018;48.588;10.836;2023-05-18T14:10:03;97218.44;;;17.70;37.65
56142;BME280;42018;48.588;10.836;2023-05-18T14:12:49;97209.44;;;17.39;38.98
56142;BME280;42018;48.588;10.836;2023-05-18T14:15:34;97211.41;;;17.19;39.00
56142;BME280;42018;48.588;10.836;2023-05-18T14:18:20;97208.59;;;17.11;39.46
56142;BME280;42018;48.588;10.836;2023-05-18T14:21:06;97197.69;;;16.93;39.18
56142;BME280;42018;48.588;10.836;2023-05-18T14:23:51;97196.97;;;16.88;39.82
56142;BME280;42018;48.588;10.836;2023-05-18T14:26:36;97202.66;;;16.86;40.23
56142;BME280;42018;48.588;10.836;2023-05-18T14:29:22;97202.75;;;16.62;40.00
56142;BME280;42018;48.588;10.836;2023-05-18T14:32:07;97196.81;;;16.46;41.05
56142;BME280;42018;48.588;10.836;2023-05-18T14:34:52;97196.88;;;16.60;41.39
56142;BME280;42018;48.588;10.836;2023-05-18T14:37:41;97193.38;;;16.79;40.05
56142;BME280;42018;48.588;10.836;2023-05-18T14:40:27;97191.69;;;16.50;39.80
56142;BME280;42018;48.588;10.836;2023-05-18T14:43:13;97186.53;;;16.72;41.01